Alle Lego-Sets mit ein Set Nummer von 41000 zu 42000

Sortieren nach
Set TitelPreisDifferenzHinzugefügt
Jetboot Vergnügen (41000)5,49 €- 0,50 € (8%)2012-12-17
Stephanies großer Auftritt (41004)24,95 €+ 4,96 € (25%)2012-12-17
Stephanie's Soccer Practice (41011)14,95 €+ 4,96 € (50%)2012-12-17
LEGO® Friends Advent Calendar (41016)19,98 €- 3,01 € (13%)2013-09-25
Parrot’s Perch (41024)13,10 €+ 9,11 € (228%)2013-10-06
Stephanies kleines Lämmchen (41029)9,95 €- 0,04 € (0%)2013-12-27
Erste Hilfe Dschungel-Bike (41032)15,99 €+ 1,00 € (7%)2014-05-31
Adventskalender (41040)19,95 €- 5,04 € (20%)2014-09-02
Schildkrötenparadies (41041)3,25 €- 1,24 € (28%)2013-12-27
Tigertempel (41042)18,15 €+ 13,66 € (304%)2013-12-27
Papageiengarten (41044)4,95 €+ 0,46 € (10%)2014-05-14
Braunbär am Fluss (41046)4,95 €+ 0,46 € (10%)2014-05-14
Panda-Bambusspielplatz (41049)3,25 €- 1,24 € (28%)2014-09-02
Heartlake Einkaufszentrum (41058)89,95 €- 10,04 € (10%)2014-05-31
Niedrigsten PreisRapunzels perfekter Tag (41065)14,98 €- 10,01 € (40%)2016-05-26
Annas und Kristoffs Schlittenabenteuer (41066)19,60 €- 10,39 € (35%)2015-12-04
Belles bezauberndes Schloss (41067)39,98 €- 10,01 € (20%)2016-05-26
Fest im großen Schloss von Arendelle (41068)44,98 €- 15,01 € (25%)2015-12-04
Korallinas Tag am Pool (41069)6,95 €- 1,04 € (13%)2015-12-15
Airas Erfinderwerkstatt (41071)9,99 €--2015-03-01
Naidas Abenteuerschiff (41073)29,99 €--2015-03-01
Das mystische Elfenversteck (41075)52,99 €+ 3,00 € (6%)2015-03-01
Airas Pegasus-Schlitten (41077)36,95 €- 3,04 € (8%)2015-06-01
Heartlake Leuchtturm (41094)33,74 €- 6,25 € (16%)2014-12-25
Emmas Familienhaus (41095)61,99 €- 8,00 € (11%)2014-12-25
Heartlake Heißluftballon (41097)22,95 €- 7,04 € (23%)2014-12-25
Emmas Kiosk (41098)7,95 €- 2,04 € (20%)2015-06-01
Heartlake Skatepark (41099)16,99 €- 3,00 € (15%)2015-06-01
Heartlake Jet (41100)32,99 €+ 8,00 € (32%)2015-06-01
Heartlake Großes Hotel (41101)92,05 €- 37,94 € (29%)2015-06-01
LEGO® Friends Adventskalender (41102)19,95 €- 0,04 € (0%)2015-09-01
Popstar Aufnahmestudio (41103)11,95 €- 3,04 € (20%)2015-06-01
Popstar Showbühne (41105)37,49 €- 7,50 € (17%)2015-06-01
Popstar Tourbus (41106)39,95 €- 20,04 € (33%)2015-06-01
Heartlake Lebensmittelmarkt (41108)44,95 €+ 4,96 € (12%)2015-06-01
Heartlake Flughafen (41109)84,95 €- 5,04 € (6%)2015-06-01
Geburtstagsparty (41110)15,95 €- 4,04 € (20%)2015-12-15
Partyzug (41111)7,95 €- 2,04 € (20%)2015-12-15
Partykuchen (41112)3,95 €- 1,04 € (21%)2015-12-15
Party-Geschenkeladen (41113)3,95 €- 1,04 € (21%)2015-12-15
Partystyling (41114)3,95 €- 1,04 € (21%)2015-12-15
Emmas Erfinderwerkstatt (41115)7,95 €- 2,04 € (20%)2015-12-19
Olivias Expeditionsauto (41116)14,95 €- 0,04 € (0%)2015-12-19
Popstar TV-Studio (41117)16,95 €- 8,04 € (32%)2015-12-19
Heartlake Supermarkt (41118)26,24 €- 8,75 € (25%)2015-12-19
Heartlake Cupcake-Café (41119)29,99 €- 10,00 € (25%)2015-12-19
Abenteuercamp Bogenschießen (41120)7,99 €- 2,00 € (20%)2015-12-15
Abenteuercamp Rafting (41121)25,95 €- 4,04 € (13%)2015-12-15
Abenteuercamp Baumhaus (41122)35,99 €- 34,00 € (49%)2015-12-15
Waschhäuschen für Emmas Fohlen (41123)6,98 €- 3,01 € (30%)2016-05-29
Heartlake Welpen-Betreuung (41124)19,00 €- 10,99 € (37%)2016-05-27
Pferdeanhänger und Tierärztin (41125)26,51 €- 13,48 € (34%)2016-05-27
Heartlake Reiterhof (41126)39,98 €- 25,01 € (38%)2016-05-27
Spielspaß im Freizeitpark (41127)10,98 €- 4,01 € (27%)2016-05-27
Raketen-Karussell (41128)14,99 €- 5,00 € (25%)2016-05-27
Hot-Dog-Stand im Freizeitpark (41129)18,99 €- 11,00 € (37%)2016-05-27
Großer Freizeitpark (41130)74,99 €- 25,00 € (25%)2016-05-27
LEGO® Friends Adventskalender 2016 (41131)14,99 €- 5,00 € (25%)2016-08-31
Heartlake Partyladen (41132)29,95 €- 0,04 € (0%)2016-05-29
Autoscooter im Freizeitpark (41133)25,66 €- 14,33 € (36%)2016-05-29
Niedrigsten PreisHeartlake Kunstschule (41134)79,99 €--2016-05-29
Livis Popstar-Villa (41135)54,99 €--2015-12-15
Daisys Schönheitssalon (41140)7,16 €- 2,83 € (28%)2015-12-15
Ballerines Königskutsche (41141)9,50 €- 0,49 € (5%)2015-12-15
Königliches Schloss der Palasttiere (41142)15,95 €- 4,04 € (20%)2015-12-19
Berrys Küche (41143)4,71 €- 2,28 € (33%)2016-12-01
Suzettes Reitanlage (41144)8,46 €- 1,53 € (15%)2016-12-01
Annas eisiges Abenteuer (41147)14,99 €- 5,00 € (25%)2016-12-01
Elsas magischer Eispalast (41148)49,88 €- 20,11 € (29%)2016-12-01
Niedrigsten PreisVaianas Abenteuerinsel (41149)18,44 €- 11,55 € (39%)2016-12-01
Niedrigsten PreisVaiana auf hoher See (41150)27,70 €- 12,29 € (31%)2016-12-01
Emily Jones & das Winddrachen-Baby (41171)13,95 €+ 3,96 € (40%)2016-03-01
Abenteuer mit dem Wasserdrachen (41172)15,95 €- 9,04 € (36%)2016-03-01
Lavahöhle des Feuerdrachens (41175)29,99 €- 10,00 € (25%)2016-03-01
Der geheime Marktplatz (41176)49,99 €- 10,00 € (17%)2016-03-01
Die kostbare Kristallmine (41177)19,95 €- 5,04 € (20%)2016-05-26
Rettung der Drachenkönigin (41179)50,34 €- 19,65 € (28%)2016-05-26
Raganas magisches Schattenschloss (41180)64,99 €- 25,00 € (28%)2016-05-26
Niedrigsten PreisNaidas Gondel und der diebische Kobold (41181)7,95 €- 2,04 € (20%)2017-03-01
Niedrigsten PreisDie Gefangennahme von Sophie Jones (41182)14,99 €- 5,00 € (25%)2017-03-01
Der böse Drache des Kobold-Königs (41183)22,49 €- 7,50 € (25%)2017-03-01
Airas Luftschiff und die Jagd nach dem Amulett (41184)29,99 €- 10,00 € (25%)2017-03-01
Magische Rettung aus dem Kobold-Dorf (41185)44,99 €- 15,00 € (25%)2017-03-01
Batgirl™ auf den Fersen des Batjets (41230)18,06 €- 6,93 € (28%)2016-12-01
Niedrigsten PreisHarley Quinn™ eilt zu Hilfe (41231)20,91 €- 9,08 € (30%)2016-12-01
Niedrigsten PreisHighschool der Super Heroes (41232)57,05 €- 22,94 € (29%)2016-12-01
Lashinas Action-Cruiser (41233)10,69 €- 4,30 € (29%)2016-12-01
Bumblebees™ Hubschrauber (41234)8,25 €- 6,74 € (45%)2016-12-01
Niedrigsten PreisWonder Womans™ Schlafgemach (41235)14,99 €- 5,00 € (25%)2016-12-01
Niedrigsten PreisWelpen-Meisterschaft (41300)14,99 €- 5,00 € (25%)2016-12-01
Niedrigsten PreisWelpenparade (41301)11,24 €- 3,75 € (25%)2016-12-01
Welpensalon (41302)3,95 €- 1,04 € (21%)2016-12-01
Welpenspielplatz (41303)3,95 €- 1,04 € (21%)2016-12-01
Niedrigsten PreisWelpenpark (41304)3,77 €- 1,22 € (24%)2016-12-01
Emmas Fotostudio (41305)7,95 €- 2,04 € (20%)2016-12-01
Niedrigsten PreisMias Strandroller (41306)7,95 €- 2,04 € (20%)2016-12-01
Olivias Erfinderlabor (41307)7,95 €- 2,04 € (20%)2016-12-01
Niedrigsten PreisStephanies Backstube (41308)7,95 €- 2,04 € (20%)2016-12-01
Niedrigsten PreisAndreas Showbühne (41309)7,95 €- 2,04 € (20%)2016-12-01
Niedrigsten PreisHeartlake Geschenkeservice (41310)13,98 €- 6,01 € (30%)2016-12-01
Heartlake Pizzeria (41311)22,38 €- 7,61 € (25%)2016-12-01
Heartlake Sportzentrum (41312)28,48 €- 11,51 € (29%)2016-12-01
Heartlake Freibad (41313)37,49 €- 12,50 € (25%)2016-12-01
Stephanies Haus (41314)50,88 €- 19,11 € (27%)2016-12-01
Gox (41536)6,95 €+ 2,96 € (74%)2015-06-01
Jinky (41537)6,95 €+ 2,96 € (74%)2015-06-01
Kamzo (41538)6,95 €+ 2,96 € (74%)2015-06-01
Spugg (41542)6,95 €+ 2,96 € (74%)2015-06-01
Turg (41543)6,95 €+ 2,96 € (74%)2015-06-01
Tungster (41544)6,95 €+ 2,96 € (74%)2015-06-01
Kuffs (41554)3,95 €- 0,04 € (1%)2016-01-31
Busto (41555)3,95 €- 0,04 € (1%)2016-01-31
Mixadel (41558)3,99 €--2016-01-31
Jamzy (41560)3,99 €--2016-01-31
Niedrigsten PreisGobbol (41572)3,95 €- 0,04 € (1%)2016-10-01
Niedrigsten PreisSweepz (41573)3,95 €- 0,04 € (1%)2016-10-01
Niedrigsten PreisCompax (41574)3,95 €- 0,04 € (1%)2016-10-01
Niedrigsten PreisCobrax (41575)3,95 €- 0,04 € (1%)2016-10-01
Niedrigsten PreisSpinza (41576)3,95 €- 0,04 € (1%)2016-10-01
Niedrigsten PreisMysto (41577)3,95 €- 0,04 € (1%)2016-10-01
Screeno (41578)4,95 €+ 0,96 € (24%)2016-10-01
Niedrigsten PreisCamsta (41579)3,95 €- 0,04 € (1%)2016-10-01
Niedrigsten PreisMyke (41580)3,95 €- 0,04 € (1%)2016-10-01
Niedrigsten PreisBatman™ (41585)9,99 €--2017-02-01
Niedrigsten PreisBatgirl™ (41586)9,99 €--2017-02-01
Niedrigsten PreisRobin™ (41587)9,99 €--2017-02-01
Niedrigsten PreisThe Joker™ (41588)9,99 €--2017-02-01
Niedrigsten PreisCaptain America (41589)9,99 €--2017-02-01
Niedrigsten PreisIron Man (41590)9,99 €--2017-02-01
Niedrigsten PreisBlack Widow (41591)9,99 €--2017-02-01
Niedrigsten PreisThe Hulk (41592)9,99 €--2017-02-01
Niedrigsten PreisCaptain Jack Sparrow (41593)9,99 €--2017-02-24
Niedrigsten PreisCaptain Armando Salazar (41594)9,99 €--2017-02-24
Niedrigsten PreisBelle (41595)9,99 €--2017-02-03
Niedrigsten PreisBeast (41596)9,99 €--2017-02-03

Auch nicht verfügbar Sets zeigen